메인 페이지
METAR-TAF:

METAR-TAF

공항 :

넬리스 공군 기지, 네바다, 미국

위도: 36-14N, 경도: 115-02W, 고도: 570m

현재 날씨관측

예보는 45분 전, 18:55시(UTC)에 발표되었습니다.
남동4kt
온도 38°C
습도 6%
기압 1011 hPa
시정: 16.1km
맑음

METAR: KLSV 131855Z AUTO 14004KT 10SM CLR 38/M06 A2986 RMK AO2 SLP082 T03751062 $

시각: 12:40 (19:40 UTC)

예보

예보는 4 시간 40분 전, 15:00시(UTC)에 발표되었습니다.
예보 대상 시간: 13일 15시부터 14일 21시까지 (UTC)
남남동9kt
시정 10km 이상
맑음
전환 중
13일 18시부터 13일 19시까지 (UTC)
12kt, 순간 최대 풍속 20kt
시정 10km 이상
고도 15000ft 상공 구름 조금
고도 25000ft 상공 구름 보통
일시적
13일 21시부터 14일 00시까지 (UTC)
남남서15kt, 순간 최대 풍속 25kt
전환 중
14일 06시부터 11일 40시까지 (UTC)
북북서12kt
시정 10km 이상
고도 25000ft 상공 구름 조금

TAF: KLSV 131500Z 1315/1421 15009KT 9999 SKC QNH2992INS BECMG 1318/1319 19012G20KT 9999 FEW150 SCT250 510009 QNH2979INS TEMPO 1321/1400 20015G25KT 520009 BECMG 1406/11407 33012KT 9999 FEW250 QNH2983INS TX40/1422Z TN25/1412Z

4,000개 이상의 공항 관측 자료 및 예보 (METAR 및 TAF 보고).

지도상에서 검색 가능한 기상관측소가 노란 점과 빨간 점으로 표시되어 있습니다.

기상관측소 명을 보려면 표시 위로 마우스를 이동하세요.

날씨 관측과 예보를 보려면 클릭하세요.

지도 변경 : 확대하려면 엑스 표시가 있는 녹색 버튼, 축소하려면 빼기 표시가 있는 녹색 버튼, 다음 페이지의 지도를 보려면 녹색 화살표를 클릭하세요.


METAR-TAF: